Airfield :
LOGIN :

Register | Disclaimer

   EN    FR    IT 

 










Legend :    VFR   Marginal VFR   IFR   Intensive IFR   Very Intensive IFR
Visi :
Ceiling :
>= 8 km
>= 3000ft
5 to 8 km
1000 to 3000 ft
1500m to 5 km
500 to 1000 ft
800 to 1500m
200 to 500 ft
< 800m
< 200 ft
Symbols :   Thunderstorms  Fog  Heavy snow  Heavy precipitations  Wind > 20 kt
SIGMETs :     Misc.  Thunderstorms  Icing  Turbulence  Mountain Waves  Volcanic Ashes






- Airport Elevation : 1302 ft
- IATA code : GNB


LFLS - Grenoble / St. Geoirs

CURRENT METAR :
  • 201130Z AUTO 18012G23KT 140V230 9999 OVC062 13/02 Q1011 NOSIG

EXPIRED METARs :
  • 201100Z AUTO 17006KT 140V200 9999 OVC058 12/03 Q1011 NOSIG
  • 201030Z AUTO 18010KT 120V220 9999 BKN056 11/03 Q1012 NOSIG
  • 201000Z AUTO VRB03KT 9999 BKN058 10/03 Q1012 NOSIG
  • 200930Z AUTO VRB02KT 9999 BKN058 08/03 Q1013 BECMG 18012KT
  • 200900Z AUTO 32003KT 260V350 9999 BKN062 06/03 Q1013 NOSIG

TAF TAF LFLS
Valid from the 20 at 09:00 until the 21 at 09:00 UTC


200800Z 2009/2109 16004KT CAVOK
BECMG 2011/2013 18012KT
TEMPO 2014/2102 18015G28KT
PROB40
TEMPO 2022/2102 18020G35KT
BECMG 2105/2107 26008KT
ATIS : +33 4 76 65 55 89



MET'MAP, your aeronautical weather chart ! - Copyright ORBIFLY December 2007 - Disclaimer

ORBIFLY MET'MAP TEAM :

Programming & Development : Alexandra Zaïnal
Concept & original design : Baudouin d'Aumeries
Assistance for programming : Marc-Olivier Méhu
Technical & hardware support : Manuel Goepfert

Contact : metmap@orbifly.com




SOURCES & CREDITS :

   NOAA